sensor_id;sensor_type;location;lat;lon;timestamp;temperature;humidity
16929;DHT22;8581;47.334;11.190;2023-02-12T00:01:36;-0.90;99.90
16929;DHT22;8581;47.334;11.190;2023-02-12T00:04:08;-1.00;99.90
16929;DHT22;8581;47.334;11.190;2023-02-12T00:06:39;-1.00;99.90
16929;DHT22;8581;47.334;11.190;2023-02-12T00:09:11;-1.10;99.90
16929;DHT22;8581;47.334;11.190;2023-02-12T00:11:42;-1.00;99.90
16929;DHT22;8581;47.334;11.190;2023-02-12T00:14:14;-1.00;99.90
16929;DHT22;8581;47.334;11.190;2023-02-12T00:16:46;-0.90;99.90
16929;DHT22;8581;47.334;11.190;2023-02-12T00:19:17;-0.60;99.90
16929;DHT22;8581;47.334;11.190;2023-02-12T00:21:55;-0.60;99.90
16929;DHT22;8581;47.334;11.190;2023-02-12T00:24:27;-0.60;99.90
16929;DHT22;8581;47.334;11.190;2023-02-12T00:26:59;-0.70;99.90
16929;DHT22;8581;47.334;11.190;2023-02-12T00:29:30;-0.50;99.90
16929;DHT22;8581;47.334;11.190;2023-02-12T00:32:02;-0.50;99.90
16929;DHT22;8581;47.334;11.190;2023-02-12T00:34:33;-0.60;99.90
16929;DHT22;8581;47.334;11.190;2023-02-12T00:37:05;-0.70;99.90
16929;DHT22;8581;47.334;11.190;2023-02-12T00:39:37;-0.70;99.90
16929;DHT22;8581;47.334;11.190;2023-02-12T00:42:08;-0.60;99.90
16929;DHT22;8581;47.334;11.190;2023-02-12T00:44:40;-0.50;99.90
16929;DHT22;8581;47.334;11.190;2023-02-12T00:47:11;-0.60;99.90
16929;DHT22;8581;47.334;11.190;2023-02-12T00:49:43;-0.60;99.90
16929;DHT22;8581;47.334;11.190;2023-02-12T00:52:15;-0.70;99.90
16929;DHT22;8581;47.334;11.190;2023-02-12T00:54:46;-0.70;99.90
16929;DHT22;8581;47.334;11.190;2023-02-12T00:57:18;-0.70;99.90
16929;DHT22;8581;47.334;11.190;2023-02-12T00:59:49;-0.60;99.90
16929;DHT22;8581;47.334;11.190;2023-02-12T01:02:21;-0.60;99.90
16929;DHT22;8581;47.334;11.190;2023-02-12T01:04:53;-0.50;99.90
16929;DHT22;8581;47.334;11.190;2023-02-12T01:07:24;-0.70;99.90
16929;DHT22;8581;47.334;11.190;2023-02-12T01:09:56;-0.50;99.90
16929;DHT22;8581;47.334;11.190;2023-02-12T01:12:27;-0.50;99.90
16929;DHT22;8581;47.334;11.190;2023-02-12T01:14:59;-0.50;99.90
16929;DHT22;8581;47.334;11.190;2023-02-12T01:17:31;-0.50;99.90
16929;DHT22;8581;47.334;11.190;2023-02-12T01:20:03;-0.50;99.90
16929;DHT22;8581;47.334;11.190;2023-02-12T01:22:34;-0.70;99.90
16929;DHT22;8581;47.334;11.190;2023-02-12T01:25:06;-0.70;99.90
16929;DHT22;8581;47.334;11.190;2023-02-12T01:27:38;-0.70;99.90
16929;DHT22;8581;47.334;11.190;2023-02-12T01:30:11;-0.80;99.90
16929;DHT22;8581;47.334;11.190;2023-02-12T01:32:43;-0.70;99.90
16929;DHT22;8581;47.334;11.190;2023-02-12T01:35:14;-0.70;99.90
16929;DHT22;8581;47.334;11.190;2023-02-12T01:37:46;-0.50;99.90
16929;DHT22;8581;47.334;11.190;2023-02-12T01:40:18;-0.30;99.90
16929;DHT22;8581;47.334;11.190;2023-02-12T01:42:49;-0.50;99.90
16929;DHT22;8581;47.334;11.190;2023-02-12T01:45:37;-0.60;99.90
16929;DHT22;8581;47.334;11.190;2023-02-12T01:48:07;-0.70;99.90
16929;DHT22;8581;47.334;11.190;2023-02-12T01:50:39;-0.70;99.90
16929;DHT22;8581;47.334;11.190;2023-02-12T01:53:11;-0.70;99.90
16929;DHT22;8581;47.334;11.190;2023-02-12T01:55:42;-0.70;99.90
16929;DHT22;8581;47.334;11.190;2023-02-12T01:58:14;-0.80;99.90
16929;DHT22;8581;47.334;11.190;2023-02-12T02:00:45;-0.90;99.90
16929;DHT22;8581;47.334;11.190;2023-02-12T02:03:17;-1.00;99.90
16929;DHT22;8581;47.334;11.190;2023-02-12T02:06:00;-1.10;99.90
16929;DHT22;8581;47.334;11.190;2023-02-12T02:08:31;-1.30;99.90
16929;DHT22;8581;47.334;11.190;2023-02-12T02:11:02;-1.40;99.90
16929;DHT22;8581;47.334;11.190;2023-02-12T02:13:34;-1.40;99.90
16929;DHT22;8581;47.334;11.190;2023-02-12T02:16:17;-1.40;99.90
16929;DHT22;8581;47.334;11.190;2023-02-12T02:19:00;-1.60;99.90
16929;DHT22;8581;47.334;11.190;2023-02-12T02:21:41;-1.80;99.90
16929;DHT22;8581;47.334;11.190;2023-02-12T02:24:57;-1.90;99.90
16929;DHT22;8581;47.334;11.190;2023-02-12T02:27:14;-2.00;99.90
16929;DHT22;8581;47.334;11.190;2023-02-12T02:32:24;-2.10;99.90
16929;DHT22;8581;47.334;11.190;2023-02-12T02:35:15;-2.20;99.90
16929;DHT22;8581;47.334;11.190;2023-02-12T02:37:50;-2.20;99.90
16929;DHT22;8581;47.334;11.190;2023-02-12T02:40:21;-2.30;99.90
16929;DHT22;8581;47.334;11.190;2023-02-12T02:43:01;-2.40;99.90
16929;DHT22;8581;47.334;11.190;2023-02-12T02:45:38;-2.30;99.90
16929;DHT22;8581;47.334;11.190;2023-02-12T02:48:17;-2.20;99.90
16929;DHT22;8581;47.334;11.190;2023-02-12T02:50:53;-2.30;99.90
16929;DHT22;8581;47.334;11.190;2023-02-12T02:53:33;-2.50;99.90
16929;DHT22;8581;47.334;11.190;2023-02-12T02:56:05;-2.50;99.90
16929;DHT22;8581;47.334;11.190;2023-02-12T02:58:38;-2.60;99.90
16929;DHT22;8581;47.334;11.190;2023-02-12T03:03:49;-2.80;99.90
16929;DHT22;8581;47.334;11.190;2023-02-12T03:06:21;-2.80;99.90
16929;DHT22;8581;47.334;11.190;2023-02-12T03:08:54;-2.90;99.90
16929;DHT22;8581;47.334;11.190;2023-02-12T03:11:24;-3.00;99.90
16929;DHT22;8581;47.334;11.190;2023-02-12T03:14:19;-3.10;99.90
16929;DHT22;8581;47.334;11.190;2023-02-12T03:16:56;-3.20;99.90
16929;DHT22;8581;47.334;11.190;2023-02-12T03:19:30;-3.10;99.90
16929;DHT22;8581;47.334;11.190;2023-02-12T03:22:05;-3.10;99.90
16929;DHT22;8581;47.334;11.190;2023-02-12T03:24:38;-3.20;99.90
16929;DHT22;8581;47.334;11.190;2023-02-12T03:27:20;-3.30;99.90
16929;DHT22;8581;47.334;11.190;2023-02-12T03:29:51;-3.50;99.90
16929;DHT22;8581;47.334;11.190;2023-02-12T03:32:28;-3.50;99.90
16929;DHT22;8581;47.334;11.190;2023-02-12T03:38:02;-3.50;99.90
16929;DHT22;8581;47.334;11.190;2023-02-12T03:40:34;-3.50;99.90
16929;DHT22;8581;47.334;11.190;2023-02-12T03:43:19;-3.50;99.90
16929;DHT22;8581;47.334;11.190;2023-02-12T03:45:51;-3.70;99.90
16929;DHT22;8581;47.334;11.190;2023-02-12T03:48:25;-3.70;99.90
16929;DHT22;8581;47.334;11.190;2023-02-12T03:51:00;-3.70;99.90
16929;DHT22;8581;47.334;11.190;2023-02-12T03:53:29;-3.50;99.90
16929;DHT22;8581;47.334;11.190;2023-02-12T03:56:03;-3.50;99.90
16929;DHT22;8581;47.334;11.190;2023-02-12T03:58:33;-3.50;99.90
16929;DHT22;8581;47.334;11.190;2023-02-12T04:01:05;-3.60;99.90
16929;DHT22;8581;47.334;11.190;2023-02-12T04:03:36;-3.80;99.90
16929;DHT22;8581;47.334;11.190;2023-02-12T04:06:17;-3.80;99.90
16929;DHT22;8581;47.334;11.190;2023-02-12T04:08:45;-3.90;99.90
16929;DHT22;8581;47.334;11.190;2023-02-12T04:11:30;-3.90;99.90
16929;DHT22;8581;47.334;11.190;2023-02-12T04:14:13;-3.80;99.90
16929;DHT22;8581;47.334;11.190;2023-02-12T04:16:46;-3.90;99.90
16929;DHT22;8581;47.334;11.190;2023-02-12T04:19:19;-4.00;99.90
16929;DHT22;8581;47.334;11.190;2023-02-12T04:22:03;-4.10;99.90
16929;DHT22;8581;47.334;11.190;2023-02-12T04:24:41;-4.10;99.90
16929;DHT22;8581;47.334;11.190;2023-02-12T04:27:09;-4.20;99.90
16929;DHT22;8581;47.334;11.190;2023-02-12T04:29:56;-4.30;99.90
16929;DHT22;8581;47.334;11.190;2023-02-12T04:32:46;-4.40;99.90
16929;DHT22;8581;47.334;11.190;2023-02-12T04:35:23;-4.40;99.90
16929;DHT22;8581;47.334;11.190;2023-02-12T04:37:57;-4.50;99.90
16929;DHT22;8581;47.334;11.190;2023-02-12T04:40:26;-4.40;99.90
16929;DHT22;8581;47.334;11.190;2023-02-12T04:42:57;-4.50;99.90
16929;DHT22;8581;47.334;11.190;2023-02-12T04:45:31;-4.50;99.90
16929;DHT22;8581;47.334;11.190;2023-02-12T04:48:01;-4.50;99.90
16929;DHT22;8581;47.334;11.190;2023-02-12T04:50:38;-4.40;99.90
16929;DHT22;8581;47.334;11.190;2023-02-12T04:53:09;-4.30;99.90
16929;DHT22;8581;47.334;11.190;2023-02-12T04:55:40;-4.40;99.90
16929;DHT22;8581;47.334;11.190;2023-02-12T04:58:12;-4.40;99.90
16929;DHT22;8581;47.334;11.190;2023-02-12T05:00:43;-4.40;99.90
16929;DHT22;8581;47.334;11.190;2023-02-12T05:03:15;-4.50;99.90
16929;DHT22;8581;47.334;11.190;2023-02-12T05:05:46;-4.60;99.90
16929;DHT22;8581;47.334;11.190;2023-02-12T05:08:18;-4.70;99.90
16929;DHT22;8581;47.334;11.190;2023-02-12T05:10:50;-4.70;99.90
16929;DHT22;8581;47.334;11.190;2023-02-12T05:13:21;-4.70;99.90
16929;DHT22;8581;47.334;11.190;2023-02-12T05:15:53;-4.70;99.90
16929;DHT22;8581;47.334;11.190;2023-02-12T05:18:24;-4.70;99.90
16929;DHT22;8581;47.334;11.190;2023-02-12T05:20:56;-4.70;99.90
16929;DHT22;8581;47.334;11.190;2023-02-12T05:23:29;-4.60;99.90
16929;DHT22;8581;47.334;11.190;2023-02-12T05:26:00;-4.60;99.90
16929;DHT22;8581;47.334;11.190;2023-02-12T05:28:31;-4.60;99.90
16929;DHT22;8581;47.334;11.190;2023-02-12T05:31:03;-4.40;99.90
16929;DHT22;8581;47.334;11.190;2023-02-12T05:33:34;-4.30;99.90
16929;DHT22;8581;47.334;11.190;2023-02-12T05:36:10;-4.50;99.90
16929;DHT22;8581;47.334;11.190;2023-02-12T05:38:40;-4.40;99.90
16929;DHT22;8581;47.334;11.190;2023-02-12T05:41:16;-4.60;99.90
16929;DHT22;8581;47.334;11.190;2023-02-12T05:43:47;-4.60;99.90
16929;DHT22;8581;47.334;11.190;2023-02-12T05:46:18;-4.60;99.90
16929;DHT22;8581;47.334;11.190;2023-02-12T05:48:50;-4.60;99.90
16929;DHT22;8581;47.334;11.190;2023-02-12T05:51:22;-4.60;99.90
16929;DHT22;8581;47.334;11.190;2023-02-12T05:53:56;-4.60;99.90
16929;DHT22;8581;47.334;11.190;2023-02-12T05:56:27;-4.60;99.90
16929;DHT22;8581;47.334;11.190;2023-02-12T05:59:07;-4.50;99.90
16929;DHT22;8581;47.334;11.190;2023-02-12T06:01:39;-4.60;99.90
16929;DHT22;8581;47.334;11.190;2023-02-12T06:04:13;-4.50;99.90
16929;DHT22;8581;47.334;11.190;2023-02-12T06:06:43;-4.50;99.90
16929;DHT22;8581;47.334;11.190;2023-02-12T06:09:15;-4.50;99.90
16929;DHT22;8581;47.334;11.190;2023-02-12T06:11:46;-4.50;99.90
16929;DHT22;8581;47.334;11.190;2023-02-12T06:14:19;-4.70;99.90
16929;DHT22;8581;47.334;11.190;2023-02-12T06:16:50;-4.80;99.90
16929;DHT22;8581;47.334;11.190;2023-02-12T06:19:21;-4.90;99.90
16929;DHT22;8581;47.334;11.190;2023-02-12T06:21:53;-4.80;99.90
16929;DHT22;8581;47.334;11.190;2023-02-12T06:24:24;-4.90;99.90
16929;DHT22;8581;47.334;11.190;2023-02-12T06:26:56;-5.00;99.90
16929;DHT22;8581;47.334;11.190;2023-02-12T06:29:28;-5.00;99.90
16929;DHT22;8581;47.334;11.190;2023-02-12T06:31:59;-4.80;99.90
16929;DHT22;8581;47.334;11.190;2023-02-12T06:34:31;-4.90;99.90
16929;DHT22;8581;47.334;11.190;2023-02-12T06:37:02;-5.00;99.90
16929;DHT22;8581;47.334;11.190;2023-02-12T06:39:34;-5.00;99.90
16929;DHT22;8581;47.334;11.190;2023-02-12T06:42:05;-5.00;99.90
16929;DHT22;8581;47.334;11.190;2023-02-12T06:44:37;-4.90;99.90
16929;DHT22;8581;47.334;11.190;2023-02-12T06:47:09;-4.80;99.90
16929;DHT22;8581;47.334;11.190;2023-02-12T06:49:40;-4.70;99.90
16929;DHT22;8581;47.334;11.190;2023-02-12T06:52:12;-4.80;99.90
16929;DHT22;8581;47.334;11.190;2023-02-12T06:54:43;-4.90;99.90
16929;DHT22;8581;47.334;11.190;2023-02-12T06:57:15;-5.00;99.90
16929;DHT22;8581;47.334;11.190;2023-02-12T06:59:47;-5.00;99.90
16929;DHT22;8581;47.334;11.190;2023-02-12T07:02:18;-4.80;99.90
16929;DHT22;8581;47.334;11.190;2023-02-12T07:04:50;-4.90;99.90
16929;DHT22;8581;47.334;11.190;2023-02-12T07:07:21;-4.70;99.90
16929;DHT22;8581;47.334;11.190;2023-02-12T07:09:53;-4.60;99.90
16929;DHT22;8581;47.334;11.190;2023-02-12T07:12:25;-4.70;99.90
16929;DHT22;8581;47.334;11.190;2023-02-12T07:14:56;-4.60;99.90
16929;DHT22;8581;47.334;11.190;2023-02-12T07:17:29;-4.60;99.90
16929;DHT22;8581;47.334;11.190;2023-02-12T07:20:01;-4.50;99.90
16929;DHT22;8581;47.334;11.190;2023-02-12T07:22:34;-4.50;99.90
16929;DHT22;8581;47.334;11.190;2023-02-12T07:25:04;-4.50;99.90
16929;DHT22;8581;47.334;11.190;2023-02-12T07:27:36;-4.20;99.90
16929;DHT22;8581;47.334;11.190;2023-02-12T07:30:08;-4.20;99.90
16929;DHT22;8581;47.334;11.190;2023-02-12T07:32:40;-4.20;99.90
16929;DHT22;8581;47.334;11.190;2023-02-12T07:35:11;-4.20;99.90
16929;DHT22;8581;47.334;11.190;2023-02-12T07:37:43;-4.20;99.90
16929;DHT22;8581;47.334;11.190;2023-02-12T07:40:15;-4.10;99.90
16929;DHT22;8581;47.334;11.190;2023-02-12T07:42:46;-4.00;99.90
16929;DHT22;8581;47.334;11.190;2023-02-12T07:45:18;-3.90;99.90
16929;DHT22;8581;47.334;11.190;2023-02-12T07:47:49;-3.80;99.90
16929;DHT22;8581;47.334;11.190;2023-02-12T07:50:21;-3.80;99.90
16929;DHT22;8581;47.334;11.190;2023-02-12T07:52:53;-3.60;99.90
16929;DHT22;8581;47.334;11.190;2023-02-12T07:55:24;-3.40;99.90
16929;DHT22;8581;47.334;11.190;2023-02-12T07:57:56;-3.00;99.90
16929;DHT22;8581;47.334;11.190;2023-02-12T08:00:27;-2.60;99.90
16929;DHT22;8581;47.334;11.190;2023-02-12T08:02:59;-2.20;99.90
16929;DHT22;8581;47.334;11.190;2023-02-12T08:05:31;-1.90;99.90
16929;DHT22;8581;47.334;11.190;2023-02-12T08:08:02;-1.70;99.90
16929;DHT22;8581;47.334;11.190;2023-02-12T08:10:34;-1.30;99.90
16929;DHT22;8581;47.334;11.190;2023-02-12T08:13:05;-1.10;99.90
16929;DHT22;8581;47.334;11.190;2023-02-12T08:15:37;-0.90;99.90
16929;DHT22;8581;47.334;11.190;2023-02-12T08:18:09;-0.60;99.90
16929;DHT22;8581;47.334;11.190;2023-02-12T08:20:40;-0.30;99.90
16929;DHT22;8581;47.334;11.190;2023-02-12T08:23:12;0.00;99.90
16929;DHT22;8581;47.334;11.190;2023-02-12T08:25:43;0.30;99.90
16929;DHT22;8581;47.334;11.190;2023-02-12T08:28:15;0.50;99.90
16929;DHT22;8581;47.334;11.190;2023-02-12T08:30:47;1.20;99.90
16929;DHT22;8581;47.334;11.190;2023-02-12T08:33:18;1.50;99.90
16929;DHT22;8581;47.334;11.190;2023-02-12T08:35:50;1.80;99.90
16929;DHT22;8581;47.334;11.190;2023-02-12T08:38:21;2.20;99.90
16929;DHT22;8581;47.334;11.190;2023-02-12T08:40:53;2.20;99.90
16929;DHT22;8581;47.334;11.190;2023-02-12T08:43:25;2.60;99.90
16929;DHT22;8581;47.334;11.190;2023-02-12T08:46:02;3.00;99.90
16929;DHT22;8581;47.334;11.190;2023-02-12T08:48:34;3.10;99.90
16929;DHT22;8581;47.334;11.190;2023-02-12T08:51:07;3.50;99.90
16929;DHT22;8581;47.334;11.190;2023-02-12T08:53:38;3.70;99.90
16929;DHT22;8581;47.334;11.190;2023-02-12T08:56:10;3.90;99.90
16929;DHT22;8581;47.334;11.190;2023-02-12T08:58:41;4.20;99.90
16929;DHT22;8581;47.334;11.190;2023-02-12T09:01:15;4.60;99.90
16929;DHT22;8581;47.334;11.190;2023-02-12T09:03:46;5.00;99.90
16929;DHT22;8581;47.334;11.190;2023-02-12T09:06:18;5.30;99.90
16929;DHT22;8581;47.334;11.190;2023-02-12T09:08:49;5.40;99.90
16929;DHT22;8581;47.334;11.190;2023-02-12T09:11:22;5.70;99.90
16929;DHT22;8581;47.334;11.190;2023-02-12T09:13:53;5.80;99.90
16929;DHT22;8581;47.334;11.190;2023-02-12T09:16:26;5.80;99.90
16929;DHT22;8581;47.334;11.190;2023-02-12T09:18:57;6.00;99.90
16929;DHT22;8581;47.334;11.190;2023-02-12T09:21:29;6.10;99.90
16929;DHT22;8581;47.334;11.190;2023-02-12T09:24:01;6.40;99.90
16929;DHT22;8581;47.334;11.190;2023-02-12T09:26:32;6.70;99.90
16929;DHT22;8581;47.334;11.190;2023-02-12T09:29:04;6.80;99.90
16929;DHT22;8581;47.334;11.190;2023-02-12T09:31:35;7.00;99.90
16929;DHT22;8581;47.334;11.190;2023-02-12T09:34:07;7.20;99.90
16929;DHT22;8581;47.334;11.190;2023-02-12T09:36:38;7.20;99.90
16929;DHT22;8581;47.334;11.190;2023-02-12T09:39:10;7.50;99.90
16929;DHT22;8581;47.334;11.190;2023-02-12T09:41:53;7.60;99.90
16929;DHT22;8581;47.334;11.190;2023-02-12T09:44:29;7.80;99.90
16929;DHT22;8581;47.334;11.190;2023-02-12T09:47:02;8.10;99.90
16929;DHT22;8581;47.334;11.190;2023-02-12T09:50:51;8.10;99.90
16929;DHT22;8581;47.334;11.190;2023-02-12T09:52:30;8.40;99.90
16929;DHT22;8581;47.334;11.190;2023-02-12T09:55:02;8.60;99.90
16929;DHT22;8581;47.334;11.190;2023-02-12T09:57:34;8.80;99.90
16929;DHT22;8581;47.334;11.190;2023-02-12T10:00:06;8.90;99.90
16929;DHT22;8581;47.334;11.190;2023-02-12T10:02:38;8.90;99.90
16929;DHT22;8581;47.334;11.190;2023-02-12T10:05:14;9.10;99.90
16929;DHT22;8581;47.334;11.190;2023-02-12T10:07:56;9.20;99.90
16929;DHT22;8581;47.334;11.190;2023-02-12T10:10:43;9.40;99.90
16929;DHT22;8581;47.334;11.190;2023-02-12T10:13:17;9.70;99.90
16929;DHT22;8581;47.334;11.190;2023-02-12T10:15:53;9.70;99.90
16929;DHT22;8581;47.334;11.190;2023-02-12T10:18:34;9.80;99.90
16929;DHT22;8581;47.334;11.190;2023-02-12T10:21:05;9.90;99.90
16929;DHT22;8581;47.334;11.190;2023-02-12T10:26:37;10.60;99.90
16929;DHT22;8581;47.334;11.190;2023-02-12T10:29:23;10.70;99.90
16929;DHT22;8581;47.334;11.190;2023-02-12T10:31:59;10.80;99.90
16929;DHT22;8581;47.334;11.190;2023-02-12T10:34:33;10.90;99.90
16929;DHT22;8581;47.334;11.190;2023-02-12T10:37:15;11.20;98.70
16929;DHT22;8581;47.334;11.190;2023-02-12T10:39:47;11.00;98.70
16929;DHT22;8581;47.334;11.190;2023-02-12T10:42:20;11.10;98.40
16929;DHT22;8581;47.334;11.190;2023-02-12T10:44:49;10.90;98.50
16929;DHT22;8581;47.334;11.190;2023-02-12T10:47:21;10.80;98.60
16929;DHT22;8581;47.334;11.190;2023-02-12T10:49:56;10.90;98.70
16929;DHT22;8581;47.334;11.190;2023-02-12T10:55:22;11.50;98.80
16929;DHT22;8581;47.334;11.190;2023-02-12T10:57:36;11.80;98.80
16929;DHT22;8581;47.334;11.190;2023-02-12T11:00:14;12.20;98.70
16929;DHT22;8581;47.334;11.190;2023-02-12T11:02:57;12.00;97.00
16929;DHT22;8581;47.334;11.190;2023-02-12T11:05:24;11.60;97.00
16929;DHT22;8581;47.334;11.190;2023-02-12T11:07:54;11.70;96.70
16929;DHT22;8581;47.334;11.190;2023-02-12T11:10:28;11.60;96.60
16929;DHT22;8581;47.334;11.190;2023-02-12T11:12:59;12.00;95.80
16929;DHT22;8581;47.334;11.190;2023-02-12T11:15:36;12.20;95.80
16929;DHT22;8581;47.334;11.190;2023-02-12T11:18:07;12.50;96.30
16929;DHT22;8581;47.334;11.190;2023-02-12T11:20:40;13.10;93.80
16929;DHT22;8581;47.334;11.190;2023-02-12T11:23:24;13.30;95.00
16929;DHT22;8581;47.334;11.190;2023-02-12T11:26:03;13.30;94.40
16929;DHT22;8581;47.334;11.190;2023-02-12T11:28:34;13.30;93.90
16929;DHT22;8581;47.334;11.190;2023-02-12T11:31:24;13.50;93.20
16929;DHT22;8581;47.334;11.190;2023-02-12T11:34:14;13.50;93.40
16929;DHT22;8581;47.334;11.190;2023-02-12T11:36:44;13.30;92.90
16929;DHT22;8581;47.334;11.190;2023-02-12T11:39:32;13.30;93.30
16929;DHT22;8581;47.334;11.190;2023-02-12T11:42:04;13.90;93.10
16929;DHT22;8581;47.334;11.190;2023-02-12T11:44:37;14.40;91.40
16929;DHT22;8581;47.334;11.190;2023-02-12T11:47:10;14.70;91.70
16929;DHT22;8581;47.334;11.190;2023-02-12T11:49:47;15.40;90.70
16929;DHT22;8581;47.334;11.190;2023-02-12T11:52:21;15.50;89.50
16929;DHT22;8581;47.334;11.190;2023-02-12T11:54:54;15.00;89.10
16929;DHT22;8581;47.334;11.190;2023-02-12T11:57:35;15.00;89.20
16929;DHT22;8581;47.334;11.190;2023-02-12T12:00:28;15.10;90.20
16929;DHT22;8581;47.334;11.190;2023-02-12T12:03:10;15.30;87.20
16929;DHT22;8581;47.334;11.190;2023-02-12T12:05:40;15.40;88.90
16929;DHT22;8581;47.334;11.190;2023-02-12T12:08:12;15.90;86.50
16929;DHT22;8581;47.334;11.190;2023-02-12T12:10:44;16.40;84.80
16929;DHT22;8581;47.334;11.190;2023-02-12T12:13:16;16.60;84.50
16929;DHT22;8581;47.334;11.190;2023-02-12T12:15:48;17.50;82.80
16929;DHT22;8581;47.334;11.190;2023-02-12T12:18:29;17.60;80.10
16929;DHT22;8581;47.334;11.190;2023-02-12T12:21:19;17.60;77.70
16929;DHT22;8581;47.334;11.190;2023-02-12T12:23:52;18.10;78.30
16929;DHT22;8581;47.334;11.190;2023-02-12T12:26:26;18.60;75.80
16929;DHT22;8581;47.334;11.190;2023-02-12T12:29:11;19.50;76.30
16929;DHT22;8581;47.334;11.190;2023-02-12T12:31:45;19.60;73.30
16929;DHT22;8581;47.334;11.190;2023-02-12T12:34:16;19.80;72.70
16929;DHT22;8581;47.334;11.190;2023-02-12T12:37:14;20.40;72.70
16929;DHT22;8581;47.334;11.190;2023-02-12T12:40:06;21.30;70.20
16929;DHT22;8581;47.334;11.190;2023-02-12T12:42:52;21.60;69.90
16929;DHT22;8581;47.334;11.190;2023-02-12T12:45:42;21.90;68.10
16929;DHT22;8581;47.334;11.190;2023-02-12T12:48:18;22.30;69.20
16929;DHT22;8581;47.334;11.190;2023-02-12T12:56:48;20.90;66.80
16929;DHT22;8581;47.334;11.190;2023-02-12T13:05:20;20.70;66.40
16929;DHT22;8581;47.334;11.190;2023-02-12T13:07:59;20.30;64.80
16929;DHT22;8581;47.334;11.190;2023-02-12T13:10:32;20.20;66.10
16929;DHT22;8581;47.334;11.190;2023-02-12T13:13:08;20.70;65.10
16929;DHT22;8581;47.334;11.190;2023-02-12T13:15:40;20.80;64.30
16929;DHT22;8581;47.334;11.190;2023-02-12T13:18:19;22.50;61.60
16929;DHT22;8581;47.334;11.190;2023-02-12T13:21:12;22.40;61.10
16929;DHT22;8581;47.334;11.190;2023-02-12T13:23:58;22.30;62.10
16929;DHT22;8581;47.334;11.190;2023-02-12T13:26:48;23.80;59.00
16929;DHT22;8581;47.334;11.190;2023-02-12T13:29:20;21.10;60.10
16929;DHT22;8581;47.334;11.190;2023-02-12T13:31:55;20.00;62.70
16929;DHT22;8581;47.334;11.190;2023-02-12T13:34:26;20.80;62.60
16929;DHT22;8581;47.334;11.190;2023-02-12T13:36:59;20.80;59.50
16929;DHT22;8581;47.334;11.190;2023-02-12T13:39:33;21.40;61.50
16929;DHT22;8581;47.334;11.190;2023-02-12T13:42:39;22.70;60.90
16929;DHT22;8581;47.334;11.190;2023-02-12T13:48:18;23.70;57.90
16929;DHT22;8581;47.334;11.190;2023-02-12T13:50:50;24.70;57.30
16929;DHT22;8581;47.334;11.190;2023-02-12T13:53:29;25.70;56.30
16929;DHT22;8581;47.334;11.190;2023-02-12T13:56:06;25.30;56.60
16929;DHT22;8581;47.334;11.190;2023-02-12T13:58:38;26.50;54.60
16929;DHT22;8581;47.334;11.190;2023-02-12T14:01:10;26.00;55.70
16929;DHT22;8581;47.334;11.190;2023-02-12T14:03:41;27.50;53.40
16929;DHT22;8581;47.334;11.190;2023-02-12T14:06:16;26.40;51.80
16929;DHT22;8581;47.334;11.190;2023-02-12T14:08:51;27.00;52.80
16929;DHT22;8581;47.334;11.190;2023-02-12T14:11:22;27.40;50.80
16929;DHT22;8581;47.334;11.190;2023-02-12T14:13:57;26.20;53.40
16929;DHT22;8581;47.334;11.190;2023-02-12T14:16:38;26.70;53.20
16929;DHT22;8581;47.334;11.190;2023-02-12T14:21:52;25.40;54.40
16929;DHT22;8581;47.334;11.190;2023-02-12T14:30:00;24.60;53.10
16929;DHT22;8581;47.334;11.190;2023-02-12T14:32:57;24.90;52.60
16929;DHT22;8581;47.334;11.190;2023-02-12T14:35:31;23.60;55.10
16929;DHT22;8581;47.334;11.190;2023-02-12T14:38:03;23.90;54.40
16929;DHT22;8581;47.334;11.190;2023-02-12T14:40:37;23.50;54.50
16929;DHT22;8581;47.334;11.190;2023-02-12T14:43:27;22.60;56.20
16929;DHT22;8581;47.334;11.190;2023-02-12T14:48:56;22.90;55.50
16929;DHT22;8581;47.334;11.190;2023-02-12T14:51:32;24.40;53.90
16929;DHT22;8581;47.334;11.190;2023-02-12T14:54:01;24.90;54.10
16929;DHT22;8581;47.334;11.190;2023-02-12T14:56:35;24.90;54.30
16929;DHT22;8581;47.334;11.190;2023-02-12T14:59:04;24.40;53.00
16929;DHT22;8581;47.334;11.190;2023-02-12T15:01:36;25.60;52.20
16929;DHT22;8581;47.334;11.190;2023-02-12T15:04:10;25.30;52.50
16929;DHT22;8581;47.334;11.190;2023-02-12T15:06:42;24.80;53.50
16929;DHT22;8581;47.334;11.190;2023-02-12T15:09:14;24.60;53.30
16929;DHT22;8581;47.334;11.190;2023-02-12T15:11:45;24.20;54.00
16929;DHT22;8581;47.334;11.190;2023-02-12T15:14:21;23.70;54.20
16929;DHT22;8581;47.334;11.190;2023-02-12T15:16:58;23.30;56.00
16929;DHT22;8581;47.334;11.190;2023-02-12T15:20:02;24.20;54.60
16929;DHT22;8581;47.334;11.190;2023-02-12T15:22:38;24.20;52.90
16929;DHT22;8581;47.334;11.190;2023-02-12T15:25:18;23.70;53.70
16929;DHT22;8581;47.334;11.190;2023-02-12T15:27:47;23.00;54.50
16929;DHT22;8581;47.334;11.190;2023-02-12T15:30:21;23.20;55.40
16929;DHT22;8581;47.334;11.190;2023-02-12T15:32:51;23.50;54.30
16929;DHT22;8581;47.334;11.190;2023-02-12T15:35:27;22.20;56.50
16929;DHT22;8581;47.334;11.190;2023-02-12T15:37:58;21.60;57.80
16929;DHT22;8581;47.334;11.190;2023-02-12T15:40:30;22.10;56.30
16929;DHT22;8581;47.334;11.190;2023-02-12T15:43:03;22.20;56.00
16929;DHT22;8581;47.334;11.190;2023-02-12T15:45:34;21.20;58.30
16929;DHT22;8581;47.334;11.190;2023-02-12T15:48:18;20.30;59.50
16929;DHT22;8581;47.334;11.190;2023-02-12T15:50:52;19.20;61.50
16929;DHT22;8581;47.334;11.190;2023-02-12T15:53:23;19.10;61.70
16929;DHT22;8581;47.334;11.190;2023-02-12T15:55:54;18.80;62.40
16929;DHT22;8581;47.334;11.190;2023-02-12T15:59:00;18.10;64.90
16929;DHT22;8581;47.334;11.190;2023-02-12T16:01:16;17.80;66.30
16929;DHT22;8581;47.334;11.190;2023-02-12T16:03:50;15.60;70.80
16929;DHT22;8581;47.334;11.190;2023-02-12T16:06:21;13.50;76.60
16929;DHT22;8581;47.334;11.190;2023-02-12T16:09:08;12.00;78.90
16929;DHT22;8581;47.334;11.190;2023-02-12T16:11:39;10.80;83.30
16929;DHT22;8581;47.334;11.190;2023-02-12T16:14:29;9.80;86.60
16929;DHT22;8581;47.334;11.190;2023-02-12T16:16:59;8.90;90.80
16929;DHT22;8581;47.334;11.190;2023-02-12T16:19:30;7.90;92.40
16929;DHT22;8581;47.334;11.190;2023-02-12T16:22:08;7.50;93.50
16929;DHT22;8581;47.334;11.190;2023-02-12T16:24:44;7.20;94.30
16929;DHT22;8581;47.334;11.190;2023-02-12T16:27:26;6.90;94.80
16929;DHT22;8581;47.334;11.190;2023-02-12T16:29:57;6.40;96.10
16929;DHT22;8581;47.334;11.190;2023-02-12T16:32:40;6.10;97.50
16929;DHT22;8581;47.334;11.190;2023-02-12T16:35:27;5.40;99.90
16929;DHT22;8581;47.334;11.190;2023-02-12T16:37:59;5.50;99.90
16929;DHT22;8581;47.334;11.190;2023-02-12T16:40:31;5.30;99.90
16929;DHT22;8581;47.334;11.190;2023-02-12T16:43:04;4.90;99.90
16929;DHT22;8581;47.334;11.190;2023-02-12T16:45:35;4.50;99.90
16929;DHT22;8581;47.334;11.190;2023-02-12T16:48:13;4.20;99.90
16929;DHT22;8581;47.334;11.190;2023-02-12T16:50:48;4.00;99.90
16929;DHT22;8581;47.334;11.190;2023-02-12T16:53:35;4.10;99.90
16929;DHT22;8581;47.334;11.190;2023-02-12T16:56:08;3.80;99.90
16929;DHT22;8581;47.334;11.190;2023-02-12T16:58:38;3.50;99.90